sensor_id;sensor_type;location;lat;lon;timestamp;P1;durP1;ratioP1;P2;durP2;ratioP2
22480;SDS011;11407;56.964;-2.212;2023-03-13T00:02:19;4.50;;;3.80;;
22480;SDS011;11407;56.964;-2.212;2023-03-13T00:04:45;6.47;;;4.13;;
22480;SDS011;11407;56.964;-2.212;2023-03-13T00:07:10;4.83;;;3.80;;
22480;SDS011;11407;56.964;-2.212;2023-03-13T00:09:35;4.17;;;3.67;;
22480;SDS011;11407;56.964;-2.212;2023-03-13T00:12:00;4.97;;;3.37;;
22480;SDS011;11407;56.964;-2.212;2023-03-13T00:14:26;3.73;;;3.03;;
22480;SDS011;11407;56.964;-2.212;2023-03-13T00:16:51;4.67;;;3.53;;
22480;SDS011;11407;56.964;-2.212;2023-03-13T00:19:16;5.27;;;3.63;;
22480;SDS011;11407;56.964;-2.212;2023-03-13T00:21:41;16.17;;;4.53;;
22480;SDS011;11407;56.964;-2.212;2023-03-13T00:24:08;15.93;;;4.17;;
22480;SDS011;11407;56.964;-2.212;2023-03-13T00:26:34;16.23;;;4.30;;
22480;SDS011;11407;56.964;-2.212;2023-03-13T00:28:59;7.87;;;4.00;;
22480;SDS011;11407;56.964;-2.212;2023-03-13T00:31:26;9.93;;;4.17;;
22480;SDS011;11407;56.964;-2.212;2023-03-13T00:33:53;12.67;;;5.73;;
22480;SDS011;11407;56.964;-2.212;2023-03-13T00:36:19;14.27;;;6.70;;
22480;SDS011;11407;56.964;-2.212;2023-03-13T00:38:45;12.40;;;4.60;;
22480;SDS011;11407;56.964;-2.212;2023-03-13T00:41:11;6.83;;;3.50;;
22480;SDS011;11407;56.964;-2.212;2023-03-13T00:43:37;7.73;;;4.13;;
22480;SDS011;11407;56.964;-2.212;2023-03-13T00:46:03;8.20;;;3.60;;
22480;SDS011;11407;56.964;-2.212;2023-03-13T00:48:28;18.00;;;8.40;;
22480;SDS011;11407;56.964;-2.212;2023-03-13T00:50:53;14.33;;;6.10;;
22480;SDS011;11407;56.964;-2.212;2023-03-13T00:53:19;9.43;;;4.60;;
22480;SDS011;11407;56.964;-2.212;2023-03-13T00:56:18;7.67;;;3.93;;
22480;SDS011;11407;56.964;-2.212;2023-03-13T00:58:36;5.47;;;3.67;;
22480;SDS011;11407;56.964;-2.212;2023-03-13T01:01:12;5.60;;;3.00;;
22480;SDS011;11407;56.964;-2.212;2023-03-13T01:03:38;3.57;;;2.73;;
22480;SDS011;11407;56.964;-2.212;2023-03-13T01:06:04;3.77;;;2.90;;
22480;SDS011;11407;56.964;-2.212;2023-03-13T01:08:30;3.17;;;2.60;;
22480;SDS011;11407;56.964;-2.212;2023-03-13T01:10:59;2.33;;;2.13;;
22480;SDS011;11407;56.964;-2.212;2023-03-13T01:13:24;3.77;;;2.67;;
22480;SDS011;11407;56.964;-2.212;2023-03-13T01:15:50;3.40;;;2.90;;
22480;SDS011;11407;56.964;-2.212;2023-03-13T01:18:15;2.90;;;2.50;;
22480;SDS011;11407;56.964;-2.212;2023-03-13T01:20:40;2.50;;;2.17;;
22480;SDS011;11407;56.964;-2.212;2023-03-13T01:23:05;3.30;;;2.50;;
22480;SDS011;11407;56.964;-2.212;2023-03-13T01:25:34;3.17;;;2.30;;
22480;SDS011;11407;56.964;-2.212;2023-03-13T01:27:59;4.07;;;2.43;;
22480;SDS011;11407;56.964;-2.212;2023-03-13T01:30:25;3.57;;;2.47;;
22480;SDS011;11407;56.964;-2.212;2023-03-13T01:32:50;5.03;;;2.73;;
22480;SDS011;11407;56.964;-2.212;2023-03-13T01:35:15;7.03;;;3.50;;
22480;SDS011;11407;56.964;-2.212;2023-03-13T01:37:42;6.73;;;3.40;;
22480;SDS011;11407;56.964;-2.212;2023-03-13T01:40:07;11.67;;;4.00;;
22480;SDS011;11407;56.964;-2.212;2023-03-13T01:42:47;14.83;;;3.87;;
22480;SDS011;11407;56.964;-2.212;2023-03-13T01:47:56;10.27;;;3.77;;
22480;SDS011;11407;56.964;-2.212;2023-03-13T01:50:22;9.07;;;3.80;;
22480;SDS011;11407;56.964;-2.212;2023-03-13T01:52:47;12.37;;;3.67;;
22480;SDS011;11407;56.964;-2.212;2023-03-13T01:55:13;8.40;;;3.40;;
22480;SDS011;11407;56.964;-2.212;2023-03-13T01:57:40;7.60;;;3.70;;
22480;SDS011;11407;56.964;-2.212;2023-03-13T02:00:09;7.53;;;3.67;;
22480;SDS011;11407;56.964;-2.212;2023-03-13T02:02:36;13.27;;;4.30;;
22480;SDS011;11407;56.964;-2.212;2023-03-13T02:05:02;10.37;;;5.00;;
22480;SDS011;11407;56.964;-2.212;2023-03-13T02:07:30;17.53;;;5.33;;
22480;SDS011;11407;56.964;-2.212;2023-03-13T02:09:56;12.83;;;4.87;;
22480;SDS011;11407;56.964;-2.212;2023-03-13T02:12:30;14.03;;;5.63;;
22480;SDS011;11407;56.964;-2.212;2023-03-13T02:14:55;15.90;;;5.60;;
22480;SDS011;11407;56.964;-2.212;2023-03-13T02:17:21;14.60;;;5.53;;
22480;SDS011;11407;56.964;-2.212;2023-03-13T02:19:48;10.53;;;4.50;;
22480;SDS011;11407;56.964;-2.212;2023-03-13T02:22:24;6.83;;;3.43;;
22480;SDS011;11407;56.964;-2.212;2023-03-13T02:24:54;6.07;;;3.73;;
22480;SDS011;11407;56.964;-2.212;2023-03-13T02:27:20;6.57;;;3.40;;
22480;SDS011;11407;56.964;-2.212;2023-03-13T02:29:46;6.40;;;3.20;;
22480;SDS011;11407;56.964;-2.212;2023-03-13T02:32:11;7.73;;;2.90;;
22480;SDS011;11407;56.964;-2.212;2023-03-13T02:34:37;6.40;;;2.50;;
22480;SDS011;11407;56.964;-2.212;2023-03-13T02:37:03;7.27;;;2.87;;
22480;SDS011;11407;56.964;-2.212;2023-03-13T02:39:30;3.87;;;2.10;;
22480;SDS011;11407;56.964;-2.212;2023-03-13T02:41:56;4.53;;;2.70;;
22480;SDS011;11407;56.964;-2.212;2023-03-13T02:44:21;5.97;;;2.33;;
22480;SDS011;11407;56.964;-2.212;2023-03-13T02:46:48;7.73;;;2.70;;
22480;SDS011;11407;56.964;-2.212;2023-03-13T02:49:34;6.80;;;2.40;;
22480;SDS011;11407;56.964;-2.212;2023-03-13T02:52:22;8.97;;;2.80;;
22480;SDS011;11407;56.964;-2.212;2023-03-13T02:54:46;7.13;;;2.53;;
22480;SDS011;11407;56.964;-2.212;2023-03-13T02:57:12;7.00;;;2.27;;
22480;SDS011;11407;56.964;-2.212;2023-03-13T02:59:37;8.13;;;2.13;;
22480;SDS011;11407;56.964;-2.212;2023-03-13T03:02:02;10.73;;;2.10;;
22480;SDS011;11407;56.964;-2.212;2023-03-13T03:04:28;3.60;;;1.87;;
22480;SDS011;11407;56.964;-2.212;2023-03-13T03:06:54;3.80;;;1.83;;
22480;SDS011;11407;56.964;-2.212;2023-03-13T03:09:19;8.90;;;1.80;;
22480;SDS011;11407;56.964;-2.212;2023-03-13T03:11:45;5.07;;;2.10;;
22480;SDS011;11407;56.964;-2.212;2023-03-13T03:14:10;4.37;;;1.77;;
22480;SDS011;11407;56.964;-2.212;2023-03-13T03:16:36;7.43;;;2.00;;
22480;SDS011;11407;56.964;-2.212;2023-03-13T03:19:01;3.33;;;1.53;;
22480;SDS011;11407;56.964;-2.212;2023-03-13T03:21:27;3.73;;;1.80;;
22480;SDS011;11407;56.964;-2.212;2023-03-13T03:23:52;4.17;;;1.80;;
22480;SDS011;11407;56.964;-2.212;2023-03-13T03:26:17;5.23;;;1.90;;
22480;SDS011;11407;56.964;-2.212;2023-03-13T03:38:57;12.40;;;3.97;;
22480;SDS011;11407;56.964;-2.212;2023-03-13T03:41:23;8.57;;;3.47;;
22480;SDS011;11407;56.964;-2.212;2023-03-13T03:43:48;8.73;;;4.20;;
22480;SDS011;11407;56.964;-2.212;2023-03-13T03:46:13;13.13;;;4.40;;
22480;SDS011;11407;56.964;-2.212;2023-03-13T03:48:39;16.07;;;4.77;;
22480;SDS011;11407;56.964;-2.212;2023-03-13T03:51:04;14.40;;;4.90;;
22480;SDS011;11407;56.964;-2.212;2023-03-13T03:53:30;16.27;;;6.03;;
22480;SDS011;11407;56.964;-2.212;2023-03-13T03:55:56;9.23;;;4.67;;
22480;SDS011;11407;56.964;-2.212;2023-03-13T03:58:21;11.47;;;5.17;;
22480;SDS011;11407;56.964;-2.212;2023-03-13T04:00:47;13.10;;;5.67;;
22480;SDS011;11407;56.964;-2.212;2023-03-13T04:03:12;11.17;;;4.90;;
22480;SDS011;11407;56.964;-2.212;2023-03-13T04:05:38;10.67;;;4.40;;
22480;SDS011;11407;56.964;-2.212;2023-03-13T04:08:04;11.77;;;3.90;;
22480;SDS011;11407;56.964;-2.212;2023-03-13T04:10:29;9.77;;;3.80;;
22480;SDS011;11407;56.964;-2.212;2023-03-13T04:12:54;6.80;;;3.27;;
22480;SDS011;11407;56.964;-2.212;2023-03-13T04:15:20;5.27;;;2.60;;
22480;SDS011;11407;56.964;-2.212;2023-03-13T04:17:45;5.67;;;2.77;;
22480;SDS011;11407;56.964;-2.212;2023-03-13T04:20:10;4.03;;;2.70;;
22480;SDS011;11407;56.964;-2.212;2023-03-13T04:22:37;3.13;;;2.50;;
22480;SDS011;11407;56.964;-2.212;2023-03-13T04:25:03;2.80;;;2.60;;
22480;SDS011;11407;56.964;-2.212;2023-03-13T04:27:28;3.60;;;2.57;;
22480;SDS011;11407;56.964;-2.212;2023-03-13T04:29:53;2.40;;;2.20;;
22480;SDS011;11407;56.964;-2.212;2023-03-13T04:32:18;3.30;;;2.67;;
22480;SDS011;11407;56.964;-2.212;2023-03-13T04:34:44;4.03;;;3.00;;
22480;SDS011;11407;56.964;-2.212;2023-03-13T04:37:09;3.20;;;2.43;;
22480;SDS011;11407;56.964;-2.212;2023-03-13T04:39:34;3.10;;;2.60;;
22480;SDS011;11407;56.964;-2.212;2023-03-13T04:42:00;2.97;;;2.50;;
22480;SDS011;11407;56.964;-2.212;2023-03-13T04:44:25;3.00;;;2.70;;
22480;SDS011;11407;56.964;-2.212;2023-03-13T04:46:50;3.40;;;2.47;;
22480;SDS011;11407;56.964;-2.212;2023-03-13T04:49:15;3.10;;;2.50;;
22480;SDS011;11407;56.964;-2.212;2023-03-13T05:05:37;2.77;;;2.57;;
22480;SDS011;11407;56.964;-2.212;2023-03-13T05:08:02;3.50;;;2.90;;
22480;SDS011;11407;56.964;-2.212;2023-03-13T05:10:29;2.67;;;2.33;;
22480;SDS011;11407;56.964;-2.212;2023-03-13T05:12:54;4.00;;;2.70;;
22480;SDS011;11407;56.964;-2.212;2023-03-13T05:15:19;3.37;;;2.70;;
22480;SDS011;11407;56.964;-2.212;2023-03-13T05:17:44;2.87;;;2.60;;
22480;SDS011;11407;56.964;-2.212;2023-03-13T05:20:10;2.60;;;2.40;;
22480;SDS011;11407;56.964;-2.212;2023-03-13T05:22:35;2.73;;;2.37;;
22480;SDS011;11407;56.964;-2.212;2023-03-13T05:25:01;2.30;;;2.10;;
22480;SDS011;11407;56.964;-2.212;2023-03-13T05:27:26;2.80;;;2.13;;
22480;SDS011;11407;56.964;-2.212;2023-03-13T05:29:51;4.13;;;2.50;;
22480;SDS011;11407;56.964;-2.212;2023-03-13T05:32:16;2.63;;;2.00;;
22480;SDS011;11407;56.964;-2.212;2023-03-13T05:34:42;2.40;;;2.17;;
22480;SDS011;11407;56.964;-2.212;2023-03-13T05:37:07;2.43;;;2.00;;
22480;SDS011;11407;56.964;-2.212;2023-03-13T05:39:32;2.60;;;2.20;;
22480;SDS011;11407;56.964;-2.212;2023-03-13T05:41:57;2.37;;;2.17;;
22480;SDS011;11407;56.964;-2.212;2023-03-13T05:44:23;2.20;;;2.00;;
22480;SDS011;11407;56.964;-2.212;2023-03-13T05:46:48;2.07;;;1.70;;
22480;SDS011;11407;56.964;-2.212;2023-03-13T05:49:13;1.60;;;1.50;;
22480;SDS011;11407;56.964;-2.212;2023-03-13T05:51:39;2.50;;;1.67;;
22480;SDS011;11407;56.964;-2.212;2023-03-13T05:54:04;1.53;;;1.43;;
22480;SDS011;11407;56.964;-2.212;2023-03-13T05:56:29;2.07;;;1.60;;
22480;SDS011;11407;56.964;-2.212;2023-03-13T05:58:54;1.50;;;1.40;;
22480;SDS011;11407;56.964;-2.212;2023-03-13T06:01:19;1.57;;;1.47;;
22480;SDS011;11407;56.964;-2.212;2023-03-13T06:03:45;1.37;;;1.10;;
22480;SDS011;11407;56.964;-2.212;2023-03-13T06:06:10;1.40;;;1.10;;
22480;SDS011;11407;56.964;-2.212;2023-03-13T06:08:36;0.87;;;0.87;;
22480;SDS011;11407;56.964;-2.212;2023-03-13T06:11:01;0.57;;;0.50;;
22480;SDS011;11407;56.964;-2.212;2023-03-13T06:13:27;0.60;;;0.60;;
22480;SDS011;11407;56.964;-2.212;2023-03-13T06:15:53;0.50;;;0.50;;
22480;SDS011;11407;56.964;-2.212;2023-03-13T06:18:18;1.27;;;0.60;;
22480;SDS011;11407;56.964;-2.212;2023-03-13T06:20:44;0.60;;;0.50;;
22480;SDS011;11407;56.964;-2.212;2023-03-13T06:23:09;0.50;;;0.50;;
22480;SDS011;11407;56.964;-2.212;2023-03-13T06:25:34;1.07;;;0.60;;
22480;SDS011;11407;56.964;-2.212;2023-03-13T06:28:00;0.63;;;0.63;;
22480;SDS011;11407;56.964;-2.212;2023-03-13T06:30:25;0.90;;;0.50;;
22480;SDS011;11407;56.964;-2.212;2023-03-13T06:32:50;0.50;;;0.50;;
22480;SDS011;11407;56.964;-2.212;2023-03-13T06:35:15;0.50;;;0.50;;
22480;SDS011;11407;56.964;-2.212;2023-03-13T06:37:41;0.60;;;0.40;;
22480;SDS011;11407;56.964;-2.212;2023-03-13T06:40:06;0.40;;;0.40;;
22480;SDS011;11407;56.964;-2.212;2023-03-13T06:42:31;0.57;;;0.57;;
22480;SDS011;11407;56.964;-2.212;2023-03-13T06:44:56;1.30;;;0.60;;
22480;SDS011;11407;56.964;-2.212;2023-03-13T06:47:22;0.63;;;0.50;;
22480;SDS011;11407;56.964;-2.212;2023-03-13T06:49:47;0.50;;;0.50;;
22480;SDS011;11407;56.964;-2.212;2023-03-13T06:52:12;0.37;;;0.37;;
22480;SDS011;11407;56.964;-2.212;2023-03-13T06:54:38;0.50;;;0.50;;
22480;SDS011;11407;56.964;-2.212;2023-03-13T06:57:03;0.47;;;0.47;;
22480;SDS011;11407;56.964;-2.212;2023-03-13T06:59:28;0.70;;;0.60;;
22480;SDS011;11407;56.964;-2.212;2023-03-13T07:01:55;0.50;;;0.50;;
22480;SDS011;11407;56.964;-2.212;2023-03-13T07:04:20;0.57;;;0.50;;
22480;SDS011;11407;56.964;-2.212;2023-03-13T07:06:45;0.80;;;0.80;;
22480;SDS011;11407;56.964;-2.212;2023-03-13T07:09:10;1.00;;;0.80;;
22480;SDS011;11407;56.964;-2.212;2023-03-13T07:11:36;1.30;;;0.83;;
22480;SDS011;11407;56.964;-2.212;2023-03-13T07:14:01;1.57;;;0.90;;
22480;SDS011;11407;56.964;-2.212;2023-03-13T07:16:26;1.27;;;0.90;;
22480;SDS011;11407;56.964;-2.212;2023-03-13T07:18:52;0.77;;;0.77;;
22480;SDS011;11407;56.964;-2.212;2023-03-13T07:21:17;1.80;;;0.90;;
22480;SDS011;11407;56.964;-2.212;2023-03-13T07:23:42;0.80;;;0.80;;
22480;SDS011;11407;56.964;-2.212;2023-03-13T07:26:12;0.70;;;0.70;;
22480;SDS011;11407;56.964;-2.212;2023-03-13T07:28:38;0.70;;;0.70;;
22480;SDS011;11407;56.964;-2.212;2023-03-13T07:31:04;0.80;;;0.80;;
22480;SDS011;11407;56.964;-2.212;2023-03-13T07:33:30;0.80;;;0.80;;
22480;SDS011;11407;56.964;-2.212;2023-03-13T07:35:55;1.10;;;1.00;;
22480;SDS011;11407;56.964;-2.212;2023-03-13T07:38:20;1.10;;;0.90;;
22480;SDS011;11407;56.964;-2.212;2023-03-13T07:40:49;1.10;;;0.93;;
22480;SDS011;11407;56.964;-2.212;2023-03-13T07:43:15;1.13;;;0.90;;
22480;SDS011;11407;56.964;-2.212;2023-03-13T07:45:48;0.80;;;0.80;;
22480;SDS011;11407;56.964;-2.212;2023-03-13T07:48:13;2.13;;;1.10;;
22480;SDS011;11407;56.964;-2.212;2023-03-13T07:50:39;1.00;;;0.83;;
22480;SDS011;11407;56.964;-2.212;2023-03-13T07:53:04;5.20;;;0.87;;
22480;SDS011;11407;56.964;-2.212;2023-03-13T07:55:29;0.80;;;0.80;;
22480;SDS011;11407;56.964;-2.212;2023-03-13T07:57:54;1.37;;;0.73;;
22480;SDS011;11407;56.964;-2.212;2023-03-13T08:00:20;0.97;;;0.93;;
22480;SDS011;11407;56.964;-2.212;2023-03-13T08:02:45;1.60;;;1.00;;
22480;SDS011;11407;56.964;-2.212;2023-03-13T08:05:10;0.90;;;0.90;;
22480;SDS011;11407;56.964;-2.212;2023-03-13T08:07:36;0.90;;;0.90;;
22480;SDS011;11407;56.964;-2.212;2023-03-13T08:10:01;0.90;;;0.90;;
22480;SDS011;11407;56.964;-2.212;2023-03-13T08:12:26;2.97;;;1.10;;
22480;SDS011;11407;56.964;-2.212;2023-03-13T08:14:51;1.13;;;0.97;;
22480;SDS011;11407;56.964;-2.212;2023-03-13T08:17:17;1.20;;;1.10;;
22480;SDS011;11407;56.964;-2.212;2023-03-13T08:19:42;1.23;;;1.10;;
22480;SDS011;11407;56.964;-2.212;2023-03-13T08:22:07;1.40;;;1.30;;
22480;SDS011;11407;56.964;-2.212;2023-03-13T08:24:32;1.50;;;1.40;;
22480;SDS011;11407;56.964;-2.212;2023-03-13T08:26:58;1.30;;;1.20;;
22480;SDS011;11407;56.964;-2.212;2023-03-13T08:29:23;1.37;;;1.00;;
22480;SDS011;11407;56.964;-2.212;2023-03-13T08:31:49;1.57;;;1.30;;
22480;SDS011;11407;56.964;-2.212;2023-03-13T08:34:16;2.40;;;1.10;;
22480;SDS011;11407;56.964;-2.212;2023-03-13T08:36:42;1.37;;;1.10;;
22480;SDS011;11407;56.964;-2.212;2023-03-13T08:39:11;1.40;;;1.30;;
22480;SDS011;11407;56.964;-2.212;2023-03-13T08:41:37;1.80;;;1.03;;
22480;SDS011;11407;56.964;-2.212;2023-03-13T08:44:04;2.07;;;1.17;;
22480;SDS011;11407;56.964;-2.212;2023-03-13T08:46:31;1.90;;;1.47;;
22480;SDS011;11407;56.964;-2.212;2023-03-13T08:48:57;1.93;;;1.50;;
22480;SDS011;11407;56.964;-2.212;2023-03-13T08:51:23;2.40;;;1.70;;
22480;SDS011;11407;56.964;-2.212;2023-03-13T08:53:48;1.77;;;1.23;;
22480;SDS011;11407;56.964;-2.212;2023-03-13T08:56:15;1.67;;;1.10;;
22480;SDS011;11407;56.964;-2.212;2023-03-13T08:58:40;0.70;;;0.70;;
22480;SDS011;11407;56.964;-2.212;2023-03-13T09:01:10;0.80;;;0.60;;
22480;SDS011;11407;56.964;-2.212;2023-03-13T09:03:35;1.07;;;0.60;;
22480;SDS011;11407;56.964;-2.212;2023-03-13T09:06:01;1.00;;;0.40;;
22480;SDS011;11407;56.964;-2.212;2023-03-13T09:08:27;0.97;;;0.70;;
22480;SDS011;11407;56.964;-2.212;2023-03-13T09:10:56;0.40;;;0.40;;
22480;SDS011;11407;56.964;-2.212;2023-03-13T09:13:21;2.03;;;0.80;;
22480;SDS011;11407;56.964;-2.212;2023-03-13T09:15:52;1.53;;;0.47;;
22480;SDS011;11407;56.964;-2.212;2023-03-13T09:18:18;1.97;;;0.40;;
22480;SDS011;11407;56.964;-2.212;2023-03-13T09:20:43;1.20;;;0.50;;
22480;SDS011;11407;56.964;-2.212;2023-03-13T09:23:08;3.00;;;0.50;;
22480;SDS011;11407;56.964;-2.212;2023-03-13T09:25:36;1.27;;;0.50;;
22480;SDS011;11407;56.964;-2.212;2023-03-13T09:28:01;0.80;;;0.60;;
22480;SDS011;11407;56.964;-2.212;2023-03-13T09:30:27;0.70;;;0.50;;
22480;SDS011;11407;56.964;-2.212;2023-03-13T09:32:52;1.70;;;0.57;;
22480;SDS011;11407;56.964;-2.212;2023-03-13T09:35:17;0.47;;;0.47;;
22480;SDS011;11407;56.964;-2.212;2023-03-13T09:37:42;0.93;;;0.40;;
22480;SDS011;11407;56.964;-2.212;2023-03-13T09:40:08;3.00;;;0.57;;
22480;SDS011;11407;56.964;-2.212;2023-03-13T09:42:39;0.63;;;0.47;;
22480;SDS011;11407;56.964;-2.212;2023-03-13T09:45:08;1.13;;;0.47;;
22480;SDS011;11407;56.964;-2.212;2023-03-13T09:47:39;0.40;;;0.30;;
22480;SDS011;11407;56.964;-2.212;2023-03-13T09:52:52;1.03;;;0.60;;
22480;SDS011;11407;56.964;-2.212;2023-03-13T09:55:20;1.07;;;0.50;;
22480;SDS011;11407;56.964;-2.212;2023-03-13T10:00:18;2.03;;;0.53;;
22480;SDS011;11407;56.964;-2.212;2023-03-13T10:02:46;1.63;;;0.40;;
22480;SDS011;11407;56.964;-2.212;2023-03-13T10:05:24;0.97;;;0.40;;
22480;SDS011;11407;56.964;-2.212;2023-03-13T10:07:49;1.37;;;0.93;;
22480;SDS011;11407;56.964;-2.212;2023-03-13T10:10:16;0.50;;;0.37;;
22480;SDS011;11407;56.964;-2.212;2023-03-13T10:12:46;0.87;;;0.47;;
22480;SDS011;11407;56.964;-2.212;2023-03-13T10:17:42;0.40;;;0.40;;
22480;SDS011;11407;56.964;-2.212;2023-03-13T10:22:43;1.57;;;0.40;;
22480;SDS011;11407;56.964;-2.212;2023-03-13T10:27:53;1.13;;;0.40;;
22480;SDS011;11407;56.964;-2.212;2023-03-13T10:30:29;1.60;;;0.53;;
22480;SDS011;11407;56.964;-2.212;2023-03-13T10:35:36;0.30;;;0.30;;
22480;SDS011;11407;56.964;-2.212;2023-03-13T10:38:03;1.43;;;0.50;;
22480;SDS011;11407;56.964;-2.212;2023-03-13T10:40:28;0.97;;;0.40;;
22480;SDS011;11407;56.964;-2.212;2023-03-13T10:43:11;1.20;;;0.53;;
22480;SDS011;11407;56.964;-2.212;2023-03-13T10:45:37;0.87;;;0.30;;
22480;SDS011;11407;56.964;-2.212;2023-03-13T10:48:03;0.33;;;0.30;;
22480;SDS011;11407;56.964;-2.212;2023-03-13T10:50:34;0.37;;;0.30;;
22480;SDS011;11407;56.964;-2.212;2023-03-13T10:53:06;0.50;;;0.40;;
22480;SDS011;11407;56.964;-2.212;2023-03-13T10:55:32;0.30;;;0.30;;
22480;SDS011;11407;56.964;-2.212;2023-03-13T10:57:58;0.93;;;0.57;;
22480;SDS011;11407;56.964;-2.212;2023-03-13T11:02:52;0.53;;;0.50;;
22480;SDS011;11407;56.964;-2.212;2023-03-13T11:07:50;0.77;;;0.50;;
22480;SDS011;11407;56.964;-2.212;2023-03-13T11:12:45;0.50;;;0.40;;
22480;SDS011;11407;56.964;-2.212;2023-03-13T11:15:33;0.40;;;0.40;;
22480;SDS011;11407;56.964;-2.212;2023-03-13T11:20:24;2.73;;;0.70;;
22480;SDS011;11407;56.964;-2.212;2023-03-13T11:22:55;1.07;;;0.50;;
22480;SDS011;11407;56.964;-2.212;2023-03-13T11:25:37;0.83;;;0.30;;
22480;SDS011;11407;56.964;-2.212;2023-03-13T11:28:07;0.57;;;0.40;;
22480;SDS011;11407;56.964;-2.212;2023-03-13T11:36:42;0.33;;;0.30;;
22480;SDS011;11407;56.964;-2.212;2023-03-13T11:38:36;1.17;;;0.50;;
22480;SDS011;11407;56.964;-2.212;2023-03-13T11:41:13;0.77;;;0.43;;
22480;SDS011;11407;56.964;-2.212;2023-03-13T11:46:29;4.30;;;0.50;;
22480;SDS011;11407;56.964;-2.212;2023-03-13T11:49:17;0.77;;;0.77;;
22480;SDS011;11407;56.964;-2.212;2023-03-13T11:51:49;2.50;;;0.70;;
22480;SDS011;11407;56.964;-2.212;2023-03-13T11:57:06;1.63;;;0.73;;
22480;SDS011;11407;56.964;-2.212;2023-03-13T12:02:03;4.13;;;0.70;;
22480;SDS011;11407;56.964;-2.212;2023-03-13T12:04:35;1.17;;;0.67;;
22480;SDS011;11407;56.964;-2.212;2023-03-13T12:07:09;1.40;;;0.70;;
22480;SDS011;11407;56.964;-2.212;2023-03-13T12:09:45;1.70;;;0.70;;
22480;SDS011;11407;56.964;-2.212;2023-03-13T12:14:44;1.33;;;0.70;;
22480;SDS011;11407;56.964;-2.212;2023-03-13T12:17:12;4.57;;;0.90;;
22480;SDS011;11407;56.964;-2.212;2023-03-13T12:22:16;1.73;;;0.80;;
22480;SDS011;11407;56.964;-2.212;2023-03-13T12:25:25;4.07;;;0.90;;
22480;SDS011;11407;56.964;-2.212;2023-03-13T12:27:31;1.57;;;0.60;;
22480;SDS011;11407;56.964;-2.212;2023-03-13T12:30:05;4.20;;;0.97;;
22480;SDS011;11407;56.964;-2.212;2023-03-13T12:40:13;2.83;;;0.90;;
22480;SDS011;11407;56.964;-2.212;2023-03-13T12:42:41;5.03;;;1.83;;
22480;SDS011;11407;56.964;-2.212;2023-03-13T12:45:16;4.57;;;1.17;;
22480;SDS011;11407;56.964;-2.212;2023-03-13T12:53:00;7.43;;;1.10;;
22480;SDS011;11407;56.964;-2.212;2023-03-13T13:00:26;6.40;;;1.80;;
22480;SDS011;11407;56.964;-2.212;2023-03-13T13:05:36;7.27;;;2.07;;
22480;SDS011;11407;56.964;-2.212;2023-03-13T13:08:01;5.50;;;1.60;;
22480;SDS011;11407;56.964;-2.212;2023-03-13T13:10:27;7.20;;;1.70;;
22480;SDS011;11407;56.964;-2.212;2023-03-13T13:15:36;4.03;;;1.50;;
22480;SDS011;11407;56.964;-2.212;2023-03-13T13:18:15;7.87;;;1.80;;
22480;SDS011;11407;56.964;-2.212;2023-03-13T13:20:47;5.30;;;1.70;;
22480;SDS011;11407;56.964;-2.212;2023-03-13T13:25:45;13.10;;;1.80;;
22480;SDS011;11407;56.964;-2.212;2023-03-13T13:28:18;3.23;;;0.97;;
22480;SDS011;11407;56.964;-2.212;2023-03-13T13:30:50;6.00;;;1.13;;
22480;SDS011;11407;56.964;-2.212;2023-03-13T13:35:44;3.37;;;1.03;;
22480;SDS011;11407;56.964;-2.212;2023-03-13T13:40:56;4.03;;;1.03;;
22480;SDS011;11407;56.964;-2.212;2023-03-13T13:43:22;7.50;;;1.33;;
22480;SDS011;11407;56.964;-2.212;2023-03-13T13:46:01;5.83;;;1.37;;
22480;SDS011;11407;56.964;-2.212;2023-03-13T13:48:28;7.83;;;1.17;;
22480;SDS011;11407;56.964;-2.212;2023-03-13T13:53:33;8.10;;;1.73;;
22480;SDS011;11407;56.964;-2.212;2023-03-13T13:56:24;5.80;;;1.33;;
22480;SDS011;11407;56.964;-2.212;2023-03-13T13:58:51;4.63;;;1.10;;
22480;SDS011;11407;56.964;-2.212;2023-03-13T14:01:20;4.53;;;0.90;;
22480;SDS011;11407;56.964;-2.212;2023-03-13T14:03:45;10.07;;;1.20;;
22480;SDS011;11407;56.964;-2.212;2023-03-13T14:06:15;6.23;;;1.33;;
22480;SDS011;11407;56.964;-2.212;2023-03-13T14:08:41;7.37;;;1.27;;
22480;SDS011;11407;56.964;-2.212;2023-03-13T14:14:17;6.67;;;1.53;;
22480;SDS011;11407;56.964;-2.212;2023-03-13T14:16:43;9.13;;;1.57;;
22480;SDS011;11407;56.964;-2.212;2023-03-13T14:19:29;3.93;;;1.50;;
22480;SDS011;11407;56.964;-2.212;2023-03-13T14:22:02;11.00;;;1.70;;
22480;SDS011;11407;56.964;-2.212;2023-03-13T14:24:28;13.70;;;2.10;;
22480;SDS011;11407;56.964;-2.212;2023-03-13T14:26:53;10.03;;;2.10;;
22480;SDS011;11407;56.964;-2.212;2023-03-13T14:29:18;11.67;;;2.17;;
22480;SDS011;11407;56.964;-2.212;2023-03-13T14:31:50;12.47;;;2.43;;
22480;SDS011;11407;56.964;-2.212;2023-03-13T14:34:16;10.33;;;2.60;;
22480;SDS011;11407;56.964;-2.212;2023-03-13T14:36:48;9.30;;;1.63;;
22480;SDS011;11407;56.964;-2.212;2023-03-13T14:41:54;13.33;;;2.10;;
22480;SDS011;11407;56.964;-2.212;2023-03-13T14:44:26;12.10;;;2.00;;
22480;SDS011;11407;56.964;-2.212;2023-03-13T14:46:56;9.70;;;1.93;;
22480;SDS011;11407;56.964;-2.212;2023-03-13T14:49:23;6.70;;;1.87;;
22480;SDS011;11407;56.964;-2.212;2023-03-13T14:52:23;10.90;;;2.10;;
22480;SDS011;11407;56.964;-2.212;2023-03-13T14:54:52;9.83;;;2.17;;
22480;SDS011;11407;56.964;-2.212;2023-03-13T14:57:18;8.87;;;2.40;;
22480;SDS011;11407;56.964;-2.212;2023-03-13T14:59:45;12.00;;;2.53;;
22480;SDS011;11407;56.964;-2.212;2023-03-13T15:02:15;8.83;;;2.20;;
22480;SDS011;11407;56.964;-2.212;2023-03-13T15:04:49;12.63;;;2.40;;
22480;SDS011;11407;56.964;-2.212;2023-03-13T15:07:15;14.83;;;3.50;;
22480;SDS011;11407;56.964;-2.212;2023-03-13T15:09:40;11.13;;;2.23;;
22480;SDS011;11407;56.964;-2.212;2023-03-13T15:12:11;10.00;;;2.53;;
22480;SDS011;11407;56.964;-2.212;2023-03-13T15:14:38;7.80;;;2.13;;
22480;SDS011;11407;56.964;-2.212;2023-03-13T15:17:14;13.20;;;2.33;;
22480;SDS011;11407;56.964;-2.212;2023-03-13T15:19:40;11.67;;;3.47;;
22480;SDS011;11407;56.964;-2.212;2023-03-13T15:22:09;11.00;;;2.57;;
22480;SDS011;11407;56.964;-2.212;2023-03-13T15:24:35;12.27;;;2.77;;
22480;SDS011;11407;56.964;-2.212;2023-03-13T15:27:00;6.60;;;1.87;;
22480;SDS011;11407;56.964;-2.212;2023-03-13T15:29:25;11.07;;;2.40;;
22480;SDS011;11407;56.964;-2.212;2023-03-13T15:31:50;9.07;;;2.37;;
22480;SDS011;11407;56.964;-2.212;2023-03-13T15:34:16;10.63;;;2.20;;
22480;SDS011;11407;56.964;-2.212;2023-03-13T15:36:41;7.37;;;2.00;;
22480;SDS011;11407;56.964;-2.212;2023-03-13T15:39:14;16.30;;;2.47;;
22480;SDS011;11407;56.964;-2.212;2023-03-13T15:41:40;12.03;;;1.90;;
22480;SDS011;11407;56.964;-2.212;2023-03-13T15:44:05;13.03;;;2.50;;
22480;SDS011;11407;56.964;-2.212;2023-03-13T15:46:31;10.33;;;1.97;;
22480;SDS011;11407;56.964;-2.212;2023-03-13T15:48:56;11.83;;;2.20;;
22480;SDS011;11407;56.964;-2.212;2023-03-13T15:51:21;6.37;;;1.63;;
22480;SDS011;11407;56.964;-2.212;2023-03-13T15:53:46;10.73;;;2.17;;
22480;SDS011;11407;56.964;-2.212;2023-03-13T15:56:16;10.67;;;2.37;;
22480;SDS011;11407;56.964;-2.212;2023-03-13T15:58:42;11.03;;;1.73;;
22480;SDS011;11407;56.964;-2.212;2023-03-13T16:01:09;5.53;;;1.77;;
22480;SDS011;11407;56.964;-2.212;2023-03-13T16:03:34;9.90;;;2.10;;
22480;SDS011;11407;56.964;-2.212;2023-03-13T16:05:59;8.87;;;1.83;;
22480;SDS011;11407;56.964;-2.212;2023-03-13T16:08:25;14.30;;;2.80;;
22480;SDS011;11407;56.964;-2.212;2023-03-13T16:10:51;15.30;;;2.57;;
22480;SDS011;11407;56.964;-2.212;2023-03-13T16:13:17;19.87;;;3.07;;
22480;SDS011;11407;56.964;-2.212;2023-03-13T16:15:43;14.80;;;2.90;;
22480;SDS011;11407;56.964;-2.212;2023-03-13T16:18:18;12.03;;;2.87;;
22480;SDS011;11407;56.964;-2.212;2023-03-13T16:20:44;9.53;;;2.07;;
22480;SDS011;11407;56.964;-2.212;2023-03-13T16:23:09;16.30;;;2.97;;